Time;durP1;ratioP1;P1;durP2;ratioP2;P2;SDS_P1;SDS_P2;PMS_P1;PMS_P2;Temp;Humidity;BMP_temperature;BMP_pressure;BME280_temperature;BME280_humidity;BME280_pressure;Samples;Min_cycle;Max_cycle;Signal;HPM_P1;HPM_P2
2022/09/10 00:00:17;;;;;;;13.20;4.82;;;;;;;12.88;100.00;100753.81;10335062;28;20125;-78
2022/09/10 00:05:17;;;;;;;11.65;5.85;;;;;;;12.92;100.00;100762.72;10318022;28;20395;-78
2022/09/10 00:10:18;;;;;;;11.32;6.75;;;;;;;12.98;100.00;100762.03;10298021;28;20503;-78
2022/09/10 00:15:19;;;;;;;13.43;6.18;;;;;;;12.94;100.00;100758.44;10319241;28;20475;-78
2022/09/10 00:20:19;;;;;;;13.27;8.02;;;;;;;12.94;100.00;100758.44;10354148;28;20121;-79
2022/09/10 00:25:20;;;;;;;12.23;6.53;;;;;;;13.01;100.00;100762.16;10329725;28;20048;-79
2022/09/10 00:30:21;;;;;;;28.50;7.88;;;;;;;13.04;100.00;100760.53;10339783;28;20048;-79
2022/09/10 00:35:21;;;;;;;16.55;6.80;;;;;;;13.05;100.00;100761.41;10357880;28;20054;-78
2022/09/10 00:40:22;;;;;;;15.23;7.82;;;;;;;13.08;100.00;100751.03;10335249;28;20046;-79
2022/09/10 00:45:24;;;;;;;19.98;8.40;;;;;;;13.14;100.00;100755.63;10349966;28;20096;-79
2022/09/10 00:50:26;;;;;;;17.33;8.35;;;;;;;13.20;100.00;100745.31;10301470;28;20038;-80
2022/09/10 00:55:27;;;;;;;17.75;6.70;;;;;;;13.25;100.00;100748.09;10348161;28;20129;-79
2022/09/10 01:00:27;;;;;;;16.88;7.55;;;;;;;13.24;100.00;100743.69;10317738;28;20040;-80
2022/09/10 01:05:28;;;;;;;13.50;6.80;;;;;;;13.21;100.00;100745.34;10301348;28;20083;-79
2022/09/10 01:10:31;;;;;;;12.95;6.18;;;;;;;13.22;100.00;100749.78;10325183;28;20505;-79
2022/09/10 01:15:56;;;;;;;13.20;7.78;;;;;;;13.31;100.00;100758.81;10360819;28;20187;-79
2022/09/10 01:21:18;;;;;;;10.07;7.07;;;;;;;13.33;100.00;100757.13;10331591;28;20046;-79
2022/09/10 01:26:42;;;;;;;16.05;7.65;;;;;;;13.35;100.00;100753.75;10333818;28;20038;-79
2022/09/10 01:31:57;;;;;;;15.55;6.85;;;;;;;13.35;100.00;100753.75;10316586;28;20479;-78
2022/09/10 01:37:03;;;;;;;12.55;5.72;;;;;;;13.36;100.00;100763.41;10305197;28;20065;-79
2022/09/10 01:42:04;;;;;;;18.85;7.97;;;;;;;13.39;100.00;100759.09;10296489;28;20111;-79
2022/09/10 01:47:43;;;;;;;12.05;6.95;;;;;;;13.35;100.00;100760.72;10318303;28;20085;-79
2022/09/10 01:52:50;;;;;;;10.93;6.35;;;;;;;13.31;100.00;100745.69;10320885;28;20038;-79
2022/09/10 01:58:12;;;;;;;12.18;7.97;;;;;;;13.28;100.00;100740.31;10351367;28;20043;-79
2022/09/10 02:03:17;;;;;;;10.80;7.07;;;;;;;13.25;100.00;100740.22;10343720;28;20043;-80
2022/09/10 02:08:22;;;;;;;18.55;7.15;;;;;;;13.20;100.00;100746.19;10351938;28;20285;-79
2022/09/10 02:13:22;;;;;;;15.55;8.95;;;;;;;13.21;100.00;100741.84;10308310;28;20054;-78
2022/09/10 02:18:23;;;;;;;11.45;7.75;;;;;;;13.20;100.00;100740.94;10324553;28;20046;-79
2022/09/10 02:23:43;;;;;;;14.52;9.77;;;;;;;13.25;100.00;100735.84;10322726;28;20076;-79
2022/09/10 02:28:43;;;;;;;15.32;8.27;;;;;;;13.28;100.00;100737.69;10330283;28;20437;-79
2022/09/10 02:33:44;;;;;;;15.25;9.10;;;;;;;13.33;100.00;100733.47;10368084;28;20042;-79
2022/09/10 02:38:45;;;;;;;19.98;10.52;;;;;;;13.33;100.00;100731.75;10336661;28;20034;-79
2022/09/10 02:43:45;;;;;;;15.13;8.82;;;;;;;13.33;100.00;100737.03;10324506;28;20050;-78
2022/09/10 02:48:46;;;;;;;21.52;9.93;;;;;;;13.34;100.00;100730.00;10328525;28;20041;-79
2022/09/10 02:53:46;;;;;;;15.10;12.27;;;;;;;13.32;100.00;100735.22;10323758;28;20181;-79
2022/09/10 02:58:47;;;;;;;18.08;10.02;;;;;;;13.34;100.00;100720.41;10326256;28;20080;-79
2022/09/10 03:03:49;;;;;;;18.33;10.60;;;;;;;13.34;100.00;100730.91;10323417;28;20494;-79
2022/09/10 03:08:50;;;;;;;28.23;13.50;;;;;;;13.37;100.00;100732.75;10344745;28;20044;-79
2022/09/10 03:13:51;;;;;;;18.87;10.63;;;;;;;13.34;100.00;100744.06;10321249;28;20038;-79
2022/09/10 03:18:51;;;;;;;19.08;10.00;;;;;;;13.34;100.00;100745.78;10328844;28;20129;-78
2022/09/10 03:23:52;;;;;;;23.23;10.38;;;;;;;13.35;100.00;100752.81;10321858;28;20054;-77
2022/09/10 03:28:53;;;;;;;19.92;11.05;;;;;;;13.27;100.00;100736.81;10340570;28;20130;-77
2022/09/10 03:33:53;;;;;;;29.15;11.88;;;;;;;13.22;100.00;100738.38;10350775;28;20041;-76
2022/09/10 03:38:54;;;;;;;19.02;12.02;;;;;;;13.22;100.00;100734.00;10359859;28;20108;-77
2022/09/10 03:43:54;;;;;;;20.35;11.32;;;;;;;13.19;100.00;100738.28;10322405;28;20030;-76
2022/09/10 03:48:55;;;;;;;23.80;14.23;;;;;;;13.17;100.00;100727.69;10326271;28;20038;-77
2022/09/10 03:53:58;;;;;;;18.67;10.98;;;;;;;13.19;100.00;100733.91;10325585;28;20037;-77
2022/09/10 03:58:59;;;;;;;14.85;10.48;;;;;;;13.21;100.00;100737.47;10337060;28;20117;-77
2022/09/10 04:04:00;;;;;;;19.30;12.60;;;;;;;13.18;100.00;100733.84;10319978;28;20099;-77
2022/09/10 04:09:00;;;;;;;19.40;11.98;;;;;;;13.18;100.00;100732.09;10320688;28;20434;-77
2022/09/10 04:14:01;;;;;;;22.65;11.82;;;;;;;13.18;100.00;100724.22;10320812;28;20402;-78
2022/09/10 04:19:01;;;;;;;37.13;15.68;;;;;;;13.20;100.00;100729.56;10319317;28;20038;-77
2022/09/10 04:24:02;;;;;;;21.63;12.82;;;;;;;13.24;100.00;100715.69;10340134;28;20149;-76
2022/09/10 04:29:02;;;;;;;24.45;13.13;;;;;;;13.24;100.00;100725.28;10353522;28;20077;-77
2022/09/10 04:34:04;;;;;;;23.30;14.95;;;;;;;13.26;100.00;100720.97;10364058;28;20041;-78
2022/09/10 04:39:04;;;;;;;22.13;12.73;;;;;;;13.30;100.00;100731.66;10351662;28;20038;-78
2022/09/10 04:44:05;;;;;;;25.27;11.75;;;;;;;13.35;100.00;100722.19;10319421;28;20066;-78
2022/09/10 04:49:06;;;;;;;32.38;14.45;;;;;;;13.32;100.00;100729.97;10325048;28;20049;-78
2022/09/10 04:54:06;;;;;;;26.30;15.57;;;;;;;13.36;100.00;100733.59;10332752;28;20039;-77
2022/09/10 04:59:07;;;;;;;26.00;12.60;;;;;;;13.36;100.00;100736.22;10318334;28;20459;-78
2022/09/10 05:04:08;;;;;;;25.90;14.57;;;;;;;13.35;100.00;100739.69;10298816;28;20046;-78
2022/09/10 05:09:10;;;;;;;25.73;13.50;;;;;;;13.33;100.00;100736.09;10305114;28;20121;-78
2022/09/10 05:14:12;;;;;;;23.38;12.18;;;;;;;13.35;100.00;100751.09;10317451;28;20105;-77
2022/09/10 05:19:16;;;;;;;29.85;15.48;;;;;;;13.33;100.00;100749.25;10315309;28;20100;-78
2022/09/10 05:24:17;;;;;;;26.10;14.82;;;;;;;13.34;100.00;100744.06;10311804;28;20410;-78
2022/09/10 05:29:18;;;;;;;25.15;15.73;;;;;;;13.36;100.00;100742.38;10329923;28;20080;-77
2022/09/10 05:34:19;;;;;;;23.45;15.43;;;;;;;13.34;100.00;100744.06;10291061;28;20036;-77
2022/09/10 05:39:19;;;;;;;21.92;14.70;;;;;;;13.30;100.00;100747.44;10320575;28;20045;-77
2022/09/10 05:44:20;;;;;;;25.77;15.52;;;;;;;13.30;100.00;100744.78;10364527;28;20065;-76
2022/09/10 05:49:20;;;;;;;28.85;16.95;;;;;;;13.36;100.00;100741.47;10340991;28;20681;-78
2022/09/10 05:54:21;;;;;;;28.50;16.20;;;;;;;13.34;100.00;100743.16;10327680;28;20042;-79
2022/09/10 05:59:22;;;;;;;27.20;17.55;;;;;;;13.35;100.00;100756.38;10319894;28;20133;-77
2022/09/10 06:04:23;;;;;;;30.10;19.02;;;;;;;13.35;100.00;100761.63;10337106;28;20042;-78
2022/09/10 06:09:23;;;;;;;28.33;15.90;;;;;;;13.38;100.00;100755.56;10327835;28;20041;-77
2022/09/10 06:14:24;;;;;;;26.75;16.40;;;;;;;13.48;100.00;100759.44;10347575;28;20493;-77
2022/09/10 06:19:24;;;;;;;27.40;18.40;;;;;;;13.60;100.00;100764.22;10342605;28;20042;-77
2022/09/10 06:24:25;;;;;;;35.72;19.70;;;;;;;13.71;100.00;100765.47;10339756;28;20042;-79
2022/09/10 06:29:26;;;;;;;24.58;16.55;;;;;;;13.69;100.00;100772.41;10367529;28;20042;-77
2022/09/10 06:34:27;;;;;;;23.98;16.90;;;;;;;13.73;100.00;100771.66;10326017;28;20066;-78
2022/09/10 06:39:27;;;;;;;34.03;17.40;;;;;;;13.79;100.00;100768.38;10344162;28;20505;-77
2022/09/10 06:44:28;;;;;;;29.73;16.25;;;;;;;13.77;100.00;100772.69;10350750;28;20041;-79
2022/09/10 06:49:30;;;;;;;28.73;18.25;;;;;;;13.84;100.00;100769.41;10306261;28;20115;-79
2022/09/10 06:54:30;;;;;;;30.33;17.83;;;;;;;13.94;100.00;100779.38;10323161;28;20089;-78
2022/09/10 06:59:31;;;;;;;30.42;18.98;;;;;;;14.05;100.00;100777.09;10323648;28;20097;-79
2022/09/10 07:04:31;;;;;;;23.30;17.20;;;;;;;14.16;100.00;100787.06;10323919;28;20088;-78
2022/09/10 07:09:32;;;;;;;24.75;15.25;;;;;;;14.12;100.00;100783.44;10322242;28;20042;-78
2022/09/10 07:14:32;;;;;;;27.38;15.73;;;;;;;14.29;100.00;100781.34;10306822;28;20099;-78
2022/09/10 07:19:35;;;;;;;27.27;16.92;;;;;;;14.25;100.00;100779.44;10327028;28;20124;-77
2022/09/10 07:24:35;;;;;;;21.98;15.88;;;;;;;14.23;100.00;100775.88;10327164;28;20038;-78
2022/09/10 07:29:36;;;;;;;24.88;17.02;;;;;;;14.26;100.00;100770.72;10331271;28;20508;-78
2022/09/10 07:34:36;;;;;;;24.45;16.67;;;;;;;14.17;100.00;100781.84;10362267;28;20036;-77
2022/09/10 07:39:37;;;;;;;24.17;15.13;;;;;;;14.23;100.00;100775.88;10347640;28;20459;-77
2022/09/10 07:44:37;;;;;;;28.85;17.40;;;;;;;14.25;100.00;100771.56;10361047;28;20030;-77
2022/09/10 07:49:38;;;;;;;26.17;17.50;;;;;;;14.17;100.00;100773.97;10354730;28;20137;-77
2022/09/10 07:54:38;;;;;;;31.75;20.33;;;;;;;14.23;100.00;100779.41;10325069;28;20078;-76
2022/09/10 07:59:39;;;;;;;33.83;23.98;;;;;;;14.19;100.00;100781.88;10337189;28;20039;-77
2022/09/10 08:04:39;;;;;;;40.78;27.35;;;;;;;14.18;100.00;100791.53;10321249;28;20038;-76
2022/09/10 08:09:40;;;;;;;29.20;21.45;;;;;;;14.21;100.00;100777.56;10354654;28;20068;-77
2022/09/10 08:14:41;;;;;;;37.83;21.52;;;;;;;14.25;100.00;100784.72;10327618;28;20052;-79
2022/09/10 08:19:41;;;;;;;27.48;17.67;;;;;;;14.35;100.00;100789.41;10346624;28;20053;-78
2022/09/10 08:24:42;;;;;;;24.50;17.08;;;;;;;14.36;100.00;100799.09;10324021;28;20076;-79
2022/09/10 08:29:42;;;;;;;30.17;19.88;;;;;;;14.31;100.00;100810.34;10328590;28;20046;-77
2022/09/10 08:34:43;;;;;;;28.88;19.83;;;;;;;14.37;100.00;100813.19;10349183;28;20096;-78
2022/09/10 08:39:44;;;;;;;28.02;19.25;;;;;;;14.37;100.00;100805.28;10332055;28;20042;-77
2022/09/10 08:44:57;;;;;;;29.50;18.65;;;;;;;14.38;100.00;100809.69;10320074;28;20073;-77
2022/09/10 08:50:12;;;;;;;25.65;19.95;;;;;;;14.36;100.00;100807.00;10319265;28;20038;-78
2022/09/10 08:55:18;;;;;;;31.40;18.90;;;;;;;14.31;100.00;100820.88;10318736;28;20040;-77
2022/09/10 09:00:22;;;;;;;30.75;21.75;;;;;;;14.24;100.00;100823.31;10318346;28;20049;-79
2022/09/10 09:05:23;;;;;;;36.42;21.95;;;;;;;14.35;100.00;100822.78;10303191;28;20101;-77
2022/09/10 09:10:23;;;;;;;32.00;22.08;;;;;;;14.41;100.00;100825.59;10316559;28;20038;-78
2022/09/10 09:15:50;;;;;;;31.98;21.17;;;;;;;14.31;100.00;100839.31;10319652;28;20042;-77
2022/09/10 09:20:55;;;;;;;35.53;21.02;;;;;;;14.35;100.00;100835.94;10318921;28;20038;-78
2022/09/10 09:26:10;;;;;;;30.45;22.35;;;;;;;14.38;100.00;100842.16;10318143;28;20093;-78
2022/09/10 09:31:21;;;;;;;34.60;23.70;;;;;;;14.39;100.00;100840.44;10317157;28;20556;-78
2022/09/10 09:36:28;;;;;;;33.78;23.98;;;;;;;14.49;100.00;100833.72;10319447;28;20099;-78
2022/09/10 09:41:34;;;;;;;36.35;23.45;;;;;;;14.54;100.00;100846.19;10301936;28;20106;-78
2022/09/10 09:46:35;;;;;;;38.22;24.00;;;;;;;14.62;100.00;100843.78;10318099;28;20474;-78
2022/09/10 09:51:35;;;;;;;33.40;23.65;;;;;;;14.68;100.00;100851.00;10325326;28;20076;-78
2022/09/10 09:56:41;;;;;;;34.40;23.50;;;;;;;14.63;100.00;100850.84;10343022;28;20486;-78
2022/09/10 10:01:42;;;;;;;37.13;25.70;;;;;;;14.51;100.00;100855.72;10351405;28;20047;-78
2022/09/10 10:06:46;;;;;;;32.00;23.95;;;;;;;14.55;100.00;100857.59;10319916;28;20057;-78
2022/09/10 10:12:06;;;;;;;33.75;24.08;;;;;;;14.73;100.00;100856.41;10320280;28;20039;-79
2022/09/10 10:17:30;;;;;;;32.63;21.67;;;;;;;14.78;100.00;100855.72;10292714;28;20043;-80
2022/09/10 10:22:31;;;;;;;31.55;24.63;;;;;;;14.86;100.00;100857.69;10340912;28;20044;-79
2022/09/10 10:27:44;;;;;;;53.03;27.42;;;;;;;15.19;100.00;100868.31;10321441;28;20042;-78
2022/09/10 10:32:57;;;;;;;29.15;23.02;;;;;;;15.08;100.00;100862.75;10364688;28;20772;-77
2022/09/10 10:38:12;;;;;;;39.95;26.35;;;;;;;14.97;100.00;100865.06;10354408;28;20034;-78
2022/09/10 10:43:27;;;;;;;36.92;25.00;;;;;;;15.05;100.00;100869.66;10353164;28;20421;-81
2022/09/10 10:48:54;;;;;;;36.63;23.63;;;;;;;15.20;100.00;100871.88;10319462;28;20095;-77
2022/09/10 10:54:17;;;;;;;33.22;23.30;;;;;;;15.55;100.00;100875.47;10321994;28;20053;-76
2022/09/10 10:59:39;;;;;;;30.10;23.75;;;;;;;16.12;100.00;100870.81;10321068;28;20053;-78
2022/09/10 11:04:53;;;;;;;21.85;17.20;;;;;;;16.46;100.00;100865.47;10319472;28;20395;-78
2022/09/10 11:10:22;;;;;;;21.67;17.98;;;;;;;16.77;100.00;100865.28;10318827;28;20045;-78
2022/09/10 11:15:48;;;;;;;23.25;17.02;;;;;;;16.51;100.00;100871.75;10319873;28;20038;-80
2022/09/10 11:21:01;;;;;;;19.85;15.82;;;;;;;16.33;100.00;100873.97;10319263;28;20097;-79
2022/09/10 11:26:06;;;;;;;;;;;;;;;16.30;100.00;100877.41;10352937;28;20042;-79
2022/09/10 11:31:30;;;;;;;23.20;18.33;;;;;;;16.24;100.00;100869.34;10361747;28;19931;-82
2022/09/10 11:36:57;;;;;;;25.00;17.08;;;;;;;16.43;100.00;100871.56;10319350;28;20045;-80
2022/09/10 11:41:58;;;;;;;25.60;16.00;;;;;;;16.54;100.00;100866.56;10316695;28;20070;-80
2022/09/10 11:47:17;;;;;;;19.08;15.82;;;;;;;16.46;100.00;100867.22;10318693;28;20034;-78
2022/09/10 11:52:17;;;;;;;24.58;16.58;;;;;;;16.37;100.00;100876.69;10319039;28;20046;-78
2022/09/10 11:57:25;;;;;;;21.67;16.27;;;;;;;16.56;100.00;100871.84;10327609;28;20030;-78
2022/09/10 12:02:45;;;;;;;24.00;16.38;;;;;;;16.88;100.00;100863.75;10374791;28;20557;-78
2022/09/10 12:07:56;;;;;;;16.58;14.40;;;;;;;17.42;98.71;100867.56;10354292;28;20348;-78
2022/09/10 12:12:57;;;;;;;15.90;13.00;;;;;;;18.07;93.07;100861.69;10331732;28;20051;-84
2022/09/10 12:18:03;;;;;;;14.38;12.88;;;;;;;18.31;93.33;100867.38;10291396;28;20047;-82
2022/09/10 12:23:03;;;;;;;17.33;11.73;;;;;;;19.50;85.54;100865.44;10305901;28;20045;-83
2022/09/10 12:28:42;;;;;;;13.25;11.50;;;;;;;18.89;87.45;100866.44;10300334;28;20041;-82
2022/09/10 12:33:42;;;;;;;15.50;11.73;;;;;;;18.84;88.61;100868.13;10318848;28;20038;-79
2022/09/10 12:39:04;;;;;;;15.30;12.63;;;;;;;18.98;89.03;100859.50;10330992;28;20037;-79
2022/09/10 12:44:35;;;;;;;15.90;10.73;;;;;;;19.12;88.01;100855.25;10326090;28;20731;-80
2022/09/10 12:50:02;;;;;;;14.82;11.52;;;;;;;19.27;86.29;100848.34;10318363;28;20038;-80
2022/09/10 12:55:10;;;;;;;16.00;10.13;;;;;;;20.55;79.80;100851.28;10320042;28;20030;-79
2022/09/10 13:00:16;;;;;;;14.60;10.32;;;;;;;18.79;86.84;100862.75;10334178;28;20041;-80
2022/09/10 13:05:42;;;;;;;14.95;10.70;;;;;;;18.11;90.64;100863.50;10328051;28;20475;-79
2022/09/10 13:10:56;;;;;;;17.00;9.10;;;;;;;17.89;91.41;100874.56;10322619;28;20099;-79
2022/09/10 13:15:56;;;;;;;10.63;8.90;;;;;;;17.60;92.87;100876.72;10320927;28;20062;-80
2022/09/10 13:20:58;;;;;;;14.18;8.27;;;;;;;17.47;93.50;100872.91;10301711;28;20517;-80
2022/09/10 13:26:27;;;;;;;8.53;7.00;;;;;;;17.74;92.84;100883.16;10321418;28;20042;-80
2022/09/10 13:31:47;;;;;;;9.55;6.38;;;;;;;18.99;85.68;100867.47;10325816;28;20043;-79
2022/09/10 13:37:02;;;;;;;8.43;5.15;;;;;;;20.65;78.12;100873.47;10327256;28;20065;-79
2022/09/10 13:42:09;;;;;;;5.80;3.88;;;;;;;23.34;69.74;100866.59;10338894;28;20092;-79
2022/09/10 13:47:39;;;;;;;6.72;3.50;;;;;;;22.88;68.40;100881.03;10305474;28;20062;-79
2022/09/10 13:52:41;;;;;;;8.38;4.95;;;;;;;21.16;71.33;100895.06;10315649;28;20045;-79
2022/09/10 13:57:42;;;;;;;6.00;4.20;;;;;;;19.61;79.59;100884.09;10316062;28;20045;-80
2022/09/10 14:02:46;;;;;;;16.20;6.50;;;;;;;17.84;92.21;100908.00;10344620;28;20038;-78
2022/09/10 14:07:46;;;;;;;16.42;8.02;;;;;;;16.70;100.00;100936.47;10340796;28;20141;-77
2022/09/10 14:12:47;;;;;;;9.88;5.57;;;;;;;15.98;100.00;100932.94;10365373;28;20042;-77
2022/09/10 14:17:56;;;;;;;7.57;5.22;;;;;;;15.54;100.00;100925.56;10331401;28;20038;-77
2022/09/10 14:23:00;;;;;;;8.55;4.70;;;;;;;15.31;100.00;100928.44;10326331;28;20034;-78
2022/09/10 14:28:25;;;;;;;9.13;5.90;;;;;;;15.24;100.00;100939.66;10342643;28;20038;-77
2022/09/10 14:33:31;;;;;;;10.45;6.68;;;;;;;15.32;100.00;100942.50;10325905;28;20046;-77
2022/09/10 14:38:36;;;;;;;10.80;8.30;;;;;;;15.46;100.00;100950.84;10340867;28;20074;-77
2022/09/10 14:43:38;;;;;;;13.38;10.05;;;;;;;15.65;100.00;100958.41;10347000;28;20133;-77
2022/09/10 14:48:41;;;;;;;10.48;9.05;;;;;;;15.86;100.00;100959.88;10339668;28;20046;-77
2022/09/10 14:53:41;;;;;;;12.38;9.93;;;;;;;15.92;100.00;100967.06;10327211;28;20096;-77
2022/09/10 14:58:44;;;;;;;14.70;12.15;;;;;;;15.91;100.00;100971.47;10323453;28;20116;-77
2022/09/10 15:03:45;;;;;;;16.10;12.88;;;;;;;15.94;100.00;100976.84;10326032;28;20042;-78
2022/09/10 15:08:48;;;;;;;19.15;14.43;;;;;;;16.22;100.00;100974.94;10322896;28;20053;-78
2022/09/10 15:13:49;;;;;;;20.02;13.38;;;;;;;16.53;100.00;100975.72;10324115;28;20043;-78
2022/09/10 15:18:50;;;;;;;14.00;11.18;;;;;;;16.75;100.00;100973.59;10322748;28;20038;-78
2022/09/10 15:23:51;;;;;;;17.20;12.07;;;;;;;16.80;100.00;100987.81;10321519;28;20129;-78
2022/09/10 15:28:51;;;;;;;15.32;12.07;;;;;;;16.80;100.00;100998.41;10352602;28;20088;-78
2022/09/10 15:33:52;;;;;;;15.70;11.30;;;;;;;16.61;100.00;100990.88;10351035;28;20045;-78
2022/09/10 15:38:53;;;;;;;21.85;19.20;;;;;;;16.49;100.00;100978.22;10361673;28;20518;-78
2022/09/10 15:43:56;;;;;;;29.83;23.27;;;;;;;16.40;100.00;100992.13;10334250;28;20050;-78
2022/09/10 15:49:00;;;;;;;16.73;11.95;;;;;;;16.28;100.00;100997.97;10320307;28;20038;-82
2022/09/10 15:54:02;;;;;;;13.90;12.07;;;;;;;16.13;100.00;100990.53;10319269;28;20402;-77
2022/09/10 15:59:04;;;;;;;16.88;13.52;;;;;;;16.04;100.00;100999.09;10340710;28;20053;-78
2022/09/10 16:04:04;;;;;;;;;;;;;;;16.03;100.00;101004.34;10346365;28;20046;-79
2022/09/10 16:09:08;;;;;;;15.95;12.85;;;;;;;16.15;100.00;101013.47;10352046;28;20377;-78
2022/09/10 16:14:11;;;;;;;20.63;15.27;;;;;;;16.31;100.00;101016.53;10344035;28;20042;-77
2022/09/10 16:19:11;;;;;;;17.13;13.77;;;;;;;16.42;100.00;101025.63;10329344;28;20133;-78
2022/09/10 16:24:12;;;;;;;19.23;14.05;;;;;;;16.38;100.00;101020.25;10318512;28;20037;-79
2022/09/10 16:29:18;;;;;;;18.38;13.60;;;;;;;16.31;100.00;101036.78;10349825;28;20383;-79
2022/09/10 16:34:19;;;;;;;20.55;15.63;;;;;;;16.32;100.00;101036.78;10314708;28;20062;-79
2022/09/10 16:39:19;;;;;;;16.92;13.13;;;;;;;16.31;100.00;101036.78;10337516;28;20034;-79
2022/09/10 16:44:20;;;;;;;17.55;14.65;;;;;;;16.17;100.00;101046.94;10337562;28;20034;-81
2022/09/10 16:49:21;;;;;;;19.13;14.45;;;;;;;15.87;100.00;101046.16;10318564;28;20197;-81
2022/09/10 16:54:21;;;;;;;22.80;18.27;;;;;;;15.56;100.00;101055.75;10337925;28;20107;-81
2022/09/10 16:59:22;;;;;;;30.50;18.92;;;;;;;15.30;100.00;101057.56;10358140;28;20057;-81
2022/09/10 17:04:27;;;;;;;25.23;18.55;;;;;;;15.04;100.00;101065.56;10344952;28;20049;-80
2022/09/10 17:09:28;;;;;;;24.13;18.05;;;;;;;14.80;100.00;101066.53;10318715;28;20046;-80
2022/09/10 17:14:28;;;;;;;25.95;21.20;;;;;;;14.66;100.00;101072.19;10337567;28;20038;-79
2022/09/10 17:19:29;;;;;;;33.17;23.98;;;;;;;14.63;100.00;101081.75;10357122;28;20026;-80
2022/09/10 17:24:29;;;;;;;36.53;25.13;;;;;;;14.62;100.00;101096.63;10337595;28;20126;-80
2022/09/10 17:29:31;;;;;;;41.83;27.38;;;;;;;14.60;100.00;101098.31;10333451;28;20035;-80
2022/09/10 17:34:32;;;;;;;35.88;27.58;;;;;;;14.55;100.00;101113.06;10356510;28;20037;-80
2022/09/10 17:39:33;;;;;;;44.70;29.70;;;;;;;14.45;100.00;101114.50;10346910;28;20038;-85
2022/09/10 17:44:33;;;;;;;43.45;28.35;;;;;;;14.46;100.00;101107.47;10372314;28;20046;-83
2022/09/10 17:49:34;;;;;;;42.47;29.98;;;;;;;14.50;100.00;101114.66;10354459;28;20040;-79
2022/09/10 17:54:34;;;;;;;43.15;31.13;;;;;;;14.56;100.00;101133.28;10359674;28;20042;-78
2022/09/10 17:59:36;;;;;;;42.50;30.70;;;;;;;14.57;100.00;101137.72;10333420;28;20038;-78
2022/09/10 18:04:36;;;;;;;46.35;31.17;;;;;;;14.61;100.00;101146.66;10330791;28;20042;-78
2022/09/10 18:09:37;;;;;;;38.13;28.40;;;;;;;14.52;100.00;101145.47;10331507;28;20042;-78
2022/09/10 18:14:38;;;;;;;48.08;29.52;;;;;;;14.44;100.00;101161.81;10370671;28;20479;-79
2022/09/10 18:19:39;;;;;;;36.58;26.67;;;;;;;14.35;100.00;101171.19;10344668;28;20035;-78
2022/09/10 18:24:39;;;;;;;52.63;28.95;;;;;;;14.31;100.00;101178.94;10352411;28;20113;-78
2022/09/10 18:29:41;;;;;;;50.78;31.00;;;;;;;14.19;100.00;101184.59;10352280;28;20121;-79
2022/09/10 18:34:41;;;;;;;47.53;31.63;;;;;;;14.15;100.00;101196.78;10369893;28;20089;-79
2022/09/10 18:39:42;;;;;;;51.22;30.35;;;;;;;14.16;100.00;101200.28;10370507;28;20289;-78
2022/09/10 18:44:42;;;;;;;52.10;30.80;;;;;;;14.19;100.00;101203.03;10361255;28;20125;-79
2022/09/10 18:49:43;;;;;;;55.72;32.08;;;;;;;14.23;100.00;101207.56;10329328;28;20081;-79
2022/09/10 18:54:44;;;;;;;51.65;32.92;;;;;;;14.22;100.00;101211.97;10328177;28;20494;-79
2022/09/10 18:59:44;;;;;;;53.65;34.60;;;;;;;14.22;100.00;101221.56;10342189;28;20176;-79
2022/09/10 19:04:45;;;;;;;53.90;30.25;;;;;;;14.21;100.00;101228.59;10365315;28;20083;-79
2022/09/10 19:09:46;;;;;;;55.78;35.40;;;;;;;14.23;100.00;101247.06;10363038;28;20103;-79
2022/09/10 19:14:47;;;;;;;59.33;38.45;;;;;;;14.23;100.00;101244.44;10324571;28;20034;-79
2022/09/10 19:19:49;;;;;;;53.47;34.38;;;;;;;14.29;100.00;101249.06;10323085;28;20142;-79
2022/09/10 19:24:51;;;;;;;58.70;33.83;;;;;;;14.25;100.00;101255.91;10358899;28;20116;-79
2022/09/10 19:29:52;;;;;;;54.50;32.72;;;;;;;14.23;100.00;101266.41;10363085;28;20041;-79
2022/09/10 19:34:54;;;;;;;59.20;36.30;;;;;;;14.23;100.00;101269.03;10321848;28;20405;-79
2022/09/10 19:39:55;;;;;;;51.15;32.78;;;;;;;14.23;100.00;101276.03;10334954;28;20085;-79
2022/09/10 19:44:56;;;;;;;56.17;35.37;;;;;;;14.24;100.00;101281.38;10344067;28;20110;-77
2022/09/10 19:49:57;;;;;;;63.58;38.65;;;;;;;14.28;100.00;101282.38;10342734;28;20482;-78
2022/09/10 19:54:59;;;;;;;65.88;38.70;;;;;;;14.24;100.00;101291.88;10325900;28;20478;-78
2022/09/10 19:59:59;;;;;;;64.60;42.05;;;;;;;14.27;100.00;101285.84;10348349;28;20034;-78
2022/09/10 20:05:01;;;;;;;71.90;45.15;;;;;;;14.27;100.00;101298.13;10323224;28;20128;-78
2022/09/10 20:10:01;;;;;;;70.77;43.50;;;;;;;14.28;100.00;101294.66;10318820;28;20041;-78
2022/09/10 20:15:02;;;;;;;72.60;42.38;;;;;;;14.26;100.00;101298.94;10320972;28;20372;-79
2022/09/10 20:20:04;;;;;;;65.32;41.63;;;;;;;14.22;100.00;101301.47;10321787;28;20040;-79
2022/09/10 20:25:05;;;;;;;80.30;42.90;;;;;;;14.17;100.00;101304.72;10336537;28;20499;-79
2022/09/10 20:30:06;;;;;;;65.63;40.65;;;;;;;14.07;100.00;101309.63;10326611;28;20034;-79
2022/09/10 20:35:07;;;;;;;78.18;48.80;;;;;;;13.97;100.00;101311.84;10336133;28;20495;-79
2022/09/10 20:40:07;;;;;;;69.07;47.22;;;;;;;13.92;100.00;101323.06;10341762;28;20038;-80
2022/09/10 20:45:09;;;;;;;88.10;47.22;;;;;;;13.99;100.00;101329.47;10323403;28;20057;-79
2022/09/10 20:50:10;;;;;;;80.18;47.65;;;;;;;14.03;100.00;101336.66;10336386;28;20125;-79
2022/09/10 20:55:11;;;;;;;68.13;41.97;;;;;;;14.04;100.00;101340.22;10349413;28;20068;-79
2022/09/10 21:00:12;;;;;;;72.10;46.22;;;;;;;14.06;100.00;101347.31;10323007;28;20133;-79
2022/09/10 21:05:13;;;;;;;81.35;47.95;;;;;;;14.04;100.00;101351.63;10346663;28;20046;-79
2022/09/10 21:10:13;;;;;;;80.80;46.53;;;;;;;13.95;100.00;101351.22;10344886;28;20498;-79
2022/09/10 21:15:14;;;;;;;74.18;46.15;;;;;;;13.78;100.00;101346.16;10319388;28;20081;-79
2022/09/10 21:20:15;;;;;;;71.80;48.45;;;;;;;13.62;100.00;101352.53;10320271;28;20129;-79
2022/09/10 21:25:15;;;;;;;72.97;44.13;;;;;;;13.48;100.00;101351.03;10332070;28;20577;-79
2022/09/10 21:30:17;;;;;;;79.10;49.05;;;;;;;13.31;100.00;101359.03;10340344;28;20120;-80
2022/09/10 21:35:18;;;;;;;80.93;44.22;;;;;;;13.22;100.00;101353.38;10335465;28;20048;-79
2022/09/10 21:40:20;;;;;;;80.45;47.72;;;;;;;13.11;100.00;101352.88;10342736;28;20364;-79
2022/09/10 21:45:26;;;;;;;68.57;41.05;;;;;;;12.98;100.00;101353.16;10339898;28;20457;-80
2022/09/10 21:50:27;;;;;;;71.32;45.65;;;;;;;12.85;100.00;101360.47;10356104;28;20412;-80
2022/09/10 21:55:27;;;;;;;71.97;46.40;;;;;;;12.68;100.00;101362.31;10346532;28;20038;-80
2022/09/10 22:00:29;;;;;;;70.80;45.13;;;;;;;12.54;100.00;101368.66;10315041;28;20120;-80
2022/09/10 22:05:30;;;;;;;73.78;47.15;;;;;;;12.50;100.00;101371.94;10329996;28;20479;-80
2022/09/10 22:10:31;;;;;;;82.57;47.00;;;;;;;12.40;100.00;101384.63;10335079;28;20124;-80
2022/09/10 22:15:37;;;;;;;71.85;47.83;;;;;;;12.38;100.00;101388.91;10344922;28;20046;-78
2022/09/10 22:20:37;;;;;;;84.88;50.20;;;;;;;12.39;100.00;101384.53;10338080;28;20034;-80
2022/09/10 22:25:38;;;;;;;76.88;49.28;;;;;;;12.34;100.00;101390.47;10347880;28;20486;-80
2022/09/10 22:30:41;;;;;;;92.65;50.22;;;;;;;12.28;100.00;101392.78;10345495;28;20043;-80
2022/09/10 22:35:41;;;;;;;87.90;53.53;;;;;;;12.28;100.00;101405.03;10364716;28;20076;-79